Beech, Iowa
Current Conditions -  °F | °C
As of 6:15 PM on Wednesday 26 Nov 2014 (Local Time) from KOXV Reporting Station
Light Rain Light Rain  
Wind Chill: 20°   Ceiling: 800
Heat Index: 30°   Visibility: 4mi
Dew Point: 28°   Wind: 14mph
Humidity: 93%   Direction: 10°N
Pressure: 30.16"   Gusts: 21mph
Location:  41.3471°N, 93.2818°W
Report Text: KOXV 270015Z AUTO 01012G18KT 4SM -RA OVC008 M01/M02 A3016 RMK AO2
Loading
Personal Weather Stations






























Interactive Weather Map New forecast layout! Learn more

10-Day Weather Forecast

Advertisements
Track Severe Weather on mobile